Time;durP1;ratioP1;P1;durP2;ratioP2;P2;SDS_P1;SDS_P2;PMS_P1;PMS_P2;Temp;Humidity;BMP_temperature;BMP_pressure;BME280_temperature;BME280_humidity;BME280_pressure;Samples;Min_cycle;Max_cycle;Signal;HPM_P1;HPM_P2
2022/05/30 00:00:22;;;;;;;13.55;7.75;;;13.50;99.90;;;;;;5068157;28;20274;-71
2022/05/30 00:03:11;;;;;;;12.82;7.75;;;13.70;99.90;;;;;;5061553;28;20215;-72
2022/05/30 00:06:00;;;;;;;15.05;8.32;;;13.70;99.90;;;;;;5055406;28;20228;-71
2022/05/30 00:08:50;;;;;;;13.68;7.45;;;13.60;99.90;;;;;;5042614;28;20220;-71
2022/05/30 00:11:38;;;;;;;11.48;7.05;;;13.80;99.90;;;;;;5058533;28;20224;-72
2022/05/30 00:14:27;;;;;;;10.50;6.75;;;13.70;99.90;;;;;;5042134;28;20242;-71
2022/05/30 00:17:19;;;;;;;9.23;6.05;;;13.80;99.90;;;;;;5044431;28;20285;-71
2022/05/30 00:20:10;;;;;;;12.68;6.82;;;13.80;99.90;;;;;;5056825;28;20346;-71
2022/05/30 00:22:58;;;;;;;12.88;7.20;;;13.80;99.90;;;;;;5048666;28;20219;-70
2022/05/30 00:25:48;;;;;;;11.18;7.05;;;13.80;99.90;;;;;;5043407;28;20788;-70
2022/05/30 00:28:38;;;;;;;11.05;6.95;;;13.70;99.90;;;;;;5073223;28;20220;-71
2022/05/30 00:31:27;;;;;;;9.88;6.55;;;13.80;99.90;;;;;;5028668;28;20230;-71
2022/05/30 00:34:17;;;;;;;8.18;6.47;;;13.70;99.90;;;;;;5053950;28;20307;-73
2022/05/30 00:37:06;;;;;;;10.20;6.35;;;13.80;99.90;;;;;;5054290;28;20224;-73
2022/05/30 00:39:55;;;;;;;9.43;6.32;;;13.80;99.90;;;;;;5043226;28;20214;-72
2022/05/30 00:42:45;;;;;;;10.00;6.03;;;13.70;99.90;;;;;;5028017;28;20212;-73
2022/05/30 00:45:34;;;;;;;10.95;6.05;;;13.80;99.90;;;;;;5038260;28;20316;-73
2022/05/30 00:48:26;;;;;;;11.55;5.85;;;13.70;99.90;;;;;;5041599;28;20375;-73
2022/05/30 00:51:18;;;;;;;9.15;5.90;;;13.70;99.90;;;;;;5051361;28;20220;-72
2022/05/30 00:54:10;;;;;;;9.88;5.72;;;13.60;99.90;;;;;;5049637;28;20225;-72
2022/05/30 00:57:19;;;;;;;10.70;6.20;;;13.60;99.90;;;;;;5029529;28;20238;-69
2022/05/30 01:00:14;;;;;;;12.00;6.07;;;13.60;99.90;;;;;;5026507;28;20315;-69
2022/05/30 01:06:36;;;;;;;12.52;6.38;;;13.50;99.90;;;;;;4966902;28;20796;-70
2022/05/30 01:09:29;;;;;;;8.23;5.47;;;13.50;99.90;;;;;;5024107;28;20260;-69
2022/05/30 01:12:18;;;;;;;10.95;5.78;;;13.50;99.90;;;;;;5041749;28;20311;-70
2022/05/30 01:15:11;;;;;;;10.13;5.90;;;13.60;99.90;;;;;;5023428;28;20780;-71
2022/05/30 01:18:05;;;;;;;9.20;5.97;;;13.60;99.90;;;;;;5019453;28;20262;-70
2022/05/30 01:21:04;;;;;;;9.05;6.25;;;13.60;99.90;;;;;;5028506;28;20354;-71
2022/05/30 01:23:59;;;;;;;8.13;5.85;;;13.50;99.90;;;;;;5030558;28;20733;-71
2022/05/30 01:27:31;;;;;;;11.07;6.60;;;13.50;99.90;;;;;;5045597;28;20228;-71
2022/05/30 01:30:21;;;;;;;8.15;6.40;;;13.40;99.90;;;;;;5019390;28;20229;-71
2022/05/30 01:33:10;;;;;;;10.73;6.45;;;13.40;99.90;;;;;;5044114;28;20290;-70
2022/05/30 01:35:59;;;;;;;10.77;6.20;;;13.40;99.90;;;;;;5034166;28;20264;-72
2022/05/30 01:38:48;;;;;;;12.73;6.55;;;13.40;99.90;;;;;;5029957;28;20224;-71
2022/05/30 01:41:45;;;;;;;13.25;7.05;;;13.30;99.90;;;;;;5015246;28;20240;-71
2022/05/30 01:44:36;;;;;;;12.43;6.30;;;13.30;99.90;;;;;;5031402;28;20236;-71
2022/05/30 01:47:26;;;;;;;12.63;6.88;;;13.30;99.90;;;;;;5026059;28;20355;-70
2022/05/30 01:50:14;;;;;;;9.52;6.85;;;13.30;99.90;;;;;;5028234;28;20347;-70
2022/05/30 01:53:03;;;;;;;12.57;7.25;;;13.20;99.90;;;;;;5028659;28;20221;-70
2022/05/30 01:56:12;;;;;;;11.57;6.85;;;13.20;99.90;;;;;;5022862;28;20245;-71
2022/05/30 01:59:04;;;;;;;9.75;7.47;;;13.00;99.90;;;;;;5016179;28;20702;-70
2022/05/30 02:01:53;;;;;;;11.00;7.18;;;13.00;99.90;;;;;;5027589;28;20271;-72
2022/05/30 02:04:43;;;;;;;9.65;7.22;;;13.00;99.90;;;;;;5030178;28;20278;-71
2022/05/30 02:07:32;;;;;;;10.30;7.50;;;13.10;99.90;;;;;;5015413;28;20232;-71
2022/05/30 02:10:21;;;;;;;12.95;7.60;;;13.20;99.90;;;;;;5029192;28;20217;-71
2022/05/30 02:13:11;;;;;;;11.05;7.57;;;13.30;99.90;;;;;;5009016;28;20304;-70
2022/05/30 02:19:29;;;;;;;11.43;7.28;;;13.20;99.90;;;;;;5013202;28;20252;-69
2022/05/30 02:22:22;;;;;;;12.68;7.40;;;13.30;99.90;;;;;;5025063;28;20713;-70
2022/05/30 02:25:12;;;;;;;10.35;7.97;;;13.30;99.90;;;;;;5039633;28;20308;-70
2022/05/30 02:28:01;;;;;;;11.45;7.80;;;13.40;99.90;;;;;;5014330;28;20232;-70
2022/05/30 02:30:50;;;;;;;11.05;7.80;;;13.40;99.90;;;;;;5055584;28;20220;-70
2022/05/30 02:36:45;;;;;;;10.77;8.00;;;13.40;99.90;;;;;;5062913;28;20242;-69
2022/05/30 02:39:36;;;;;;;11.73;8.10;;;13.40;99.90;;;;;;5064240;28;20700;-70
2022/05/30 02:42:31;;;;;;;14.25;9.13;;;13.40;99.90;;;;;;5050490;28;20216;-71
2022/05/30 02:45:21;;;;;;;16.67;10.52;;;13.40;99.90;;;;;;5064650;28;20216;-69
2022/05/30 02:48:11;;;;;;;17.65;10.63;;;13.30;99.90;;;;;;5036527;28;20778;-71
2022/05/30 02:50:59;;;;;;;11.80;10.48;;;13.10;99.90;;;;;;5064163;28;20288;-71
2022/05/30 02:53:52;;;;;;;14.15;10.15;;;13.10;99.90;;;;;;5032870;28;21749;-72
2022/05/30 02:56:59;;;;;;;15.35;10.18;;;13.10;99.90;;;;;;5051912;28;20354;-71
2022/05/30 02:59:49;;;;;;;11.63;10.40;;;13.20;99.90;;;;;;5042345;28;20598;-70
2022/05/30 03:02:38;;;;;;;17.23;10.63;;;13.20;99.90;;;;;;5062418;28;20213;-71
2022/05/30 03:05:27;;;;;;;13.20;9.88;;;13.20;99.90;;;;;;5062554;28;20839;-71
2022/05/30 03:08:16;;;;;;;15.50;10.50;;;13.30;99.90;;;;;;5062102;28;20224;-70
2022/05/30 03:11:25;;;;;;;12.80;9.48;;;13.30;99.90;;;;;;5051524;28;20705;-70
2022/05/30 03:14:19;;;;;;;13.05;9.90;;;13.30;99.90;;;;;;5064879;28;20220;-71
2022/05/30 03:17:11;;;;;;;14.45;10.18;;;13.30;99.90;;;;;;5051004;28;20374;-70
2022/05/30 03:20:06;;;;;;;14.32;10.00;;;13.20;99.90;;;;;;5070572;28;20232;-71
2022/05/30 03:22:56;;;;;;;11.38;10.18;;;13.10;99.90;;;;;;5058763;28;20275;-71
2022/05/30 03:26:05;;;;;;;16.90;11.57;;;13.00;99.90;;;;;;5049305;28;20252;-70
2022/05/30 03:28:54;;;;;;;15.27;10.30;;;13.00;99.90;;;;;;5054859;28;20224;-71
2022/05/30 03:31:44;;;;;;;12.65;10.07;;;13.00;99.90;;;;;;5041607;28;20219;-70
2022/05/30 03:34:37;;;;;;;16.38;10.43;;;13.00;99.90;;;;;;5040501;28;20229;-71
2022/05/30 03:37:26;;;;;;;17.67;10.77;;;13.00;99.90;;;;;;5045043;28;20225;-71
2022/05/30 03:40:28;;;;;;;15.00;9.25;;;12.90;99.90;;;;;;5042501;28;20353;-71
2022/05/30 03:43:35;;;;;;;14.77;11.73;;;12.80;99.90;;;;;;5058367;28;20282;-70
2022/05/30 03:46:24;;;;;;;14.93;12.98;;;12.80;99.90;;;;;;5071455;28;20228;-71
2022/05/30 03:49:14;;;;;;;14.77;11.55;;;12.80;99.90;;;;;;5040946;28;20734;-71
2022/05/30 03:52:03;;;;;;;13.95;9.85;;;12.90;99.90;;;;;;5043862;28;20218;-70
2022/05/30 03:54:52;;;;;;;16.83;12.23;;;12.80;99.90;;;;;;5045350;28;20964;-70
2022/05/30 03:57:42;;;;;;;17.33;10.90;;;12.80;99.90;;;;;;5047498;28;20231;-70
2022/05/30 04:00:35;;;;;;;13.65;9.90;;;12.80;99.90;;;;;;5043602;28;20272;-70
2022/05/30 04:03:25;;;;;;;16.90;12.00;;;12.90;99.90;;;;;;5038933;28;20220;-70
2022/05/30 04:06:17;;;;;;;15.98;10.32;;;12.80;99.90;;;;;;5053188;28;20224;-71
2022/05/30 04:09:07;;;;;;;13.27;9.82;;;12.80;99.90;;;;;;5046672;28;20226;-70
2022/05/30 04:12:31;;;;;;;11.82;9.18;;;12.90;99.90;;;;;;5063484;28;20727;-69
2022/05/30 04:15:38;;;;;;;12.63;8.43;;;12.80;99.90;;;;;;5059858;28;20859;-69
2022/05/30 04:18:30;;;;;;;13.48;8.73;;;12.80;99.90;;;;;;5045490;28;20567;-68
2022/05/30 04:21:20;;;;;;;16.55;10.10;;;12.70;99.90;;;;;;5061591;28;20226;-69
2022/05/30 04:24:15;;;;;;;14.77;9.90;;;12.70;99.90;;;;;;5037660;28;20226;-71
2022/05/30 04:27:13;;;;;;;13.93;8.82;;;12.70;99.90;;;;;;5061493;28;20239;-71
2022/05/30 04:30:02;;;;;;;12.55;7.53;;;12.80;99.90;;;;;;5046574;28;20231;-70
2022/05/30 04:32:54;;;;;;;13.50;8.80;;;12.70;99.90;;;;;;5057278;28;20286;-69
2022/05/30 04:35:43;;;;;;;13.18;8.50;;;12.80;99.90;;;;;;5074652;28;20219;-70
2022/05/30 04:38:35;;;;;;;14.00;8.50;;;12.70;99.90;;;;;;5050420;28;20230;-70
2022/05/30 04:41:42;;;;;;;8.52;7.55;;;12.80;99.90;;;;;;5055967;28;20216;-71
2022/05/30 04:44:54;;;;;;;13.05;8.70;;;12.80;99.90;;;;;;5055171;28;20244;-71
2022/05/30 04:48:03;;;;;;;16.23;8.70;;;12.80;99.90;;;;;;5057700;28;20246;-70
2022/05/30 04:50:52;;;;;;;15.57;8.85;;;12.80;99.90;;;;;;5046446;28;20220;-71
2022/05/30 04:53:42;;;;;;;15.07;8.93;;;12.70;99.90;;;;;;5045677;28;20216;-71
2022/05/30 04:56:31;;;;;;;12.75;7.78;;;12.70;99.90;;;;;;5040991;28;20228;-70
2022/05/30 04:59:24;;;;;;;9.40;7.05;;;12.60;99.90;;;;;;5050085;28;20216;-71
2022/05/30 05:02:17;;;;;;;12.25;7.43;;;12.50;99.90;;;;;;5047339;28;20327;-69
2022/05/30 05:05:10;;;;;;;9.50;7.13;;;12.60;99.90;;;;;;5061530;28;20547;-71
2022/05/30 05:08:07;;;;;;;12.05;6.70;;;12.50;99.90;;;;;;5045588;28;20227;-70
2022/05/30 05:11:22;;;;;;;10.80;7.32;;;12.30;99.90;;;;;;5061252;28;20216;-70
2022/05/30 05:14:29;;;;;;;11.48;8.32;;;12.30;99.90;;;;;;5054149;28;20242;-70
2022/05/30 05:17:37;;;;;;;14.60;7.75;;;12.30;99.90;;;;;;5055407;28;20345;-71
2022/05/30 05:20:25;;;;;;;10.52;9.00;;;12.10;99.90;;;;;;5049293;28;20587;-71
2022/05/30 05:23:14;;;;;;;14.25;9.85;;;12.10;99.90;;;;;;5063968;28;20253;-71
2022/05/30 05:26:21;;;;;;;13.40;9.70;;;12.10;99.90;;;;;;5051414;28;20573;-71
2022/05/30 05:29:38;;;;;;;12.23;9.88;;;12.00;99.90;;;;;;5070352;28;20224;-71
2022/05/30 05:32:27;;;;;;;15.00;10.75;;;11.90;99.90;;;;;;5049873;28;20346;-70
2022/05/30 05:35:16;;;;;;;14.95;11.00;;;12.00;99.90;;;;;;5051736;28;20234;-71
2022/05/30 05:38:05;;;;;;;12.00;9.93;;;12.10;99.90;;;;;;5042922;28;20315;-70
2022/05/30 05:41:08;;;;;;;17.10;11.57;;;12.00;99.90;;;;;;5068924;28;20227;-70
2022/05/30 05:44:18;;;;;;;14.80;11.32;;;11.80;99.90;;;;;;5057690;28;20220;-70
2022/05/30 05:47:08;;;;;;;14.15;10.93;;;12.00;99.90;;;;;;5041812;28;20354;-71
2022/05/30 05:49:58;;;;;;;12.32;9.63;;;12.00;99.90;;;;;;5059446;28;20231;-71
2022/05/30 05:52:47;;;;;;;16.35;11.32;;;11.90;99.90;;;;;;5040478;28;20223;-70
2022/05/30 05:55:41;;;;;;;14.05;10.88;;;11.80;99.90;;;;;;5046433;28;20213;-67
2022/05/30 05:58:29;;;;;;;17.35;12.82;;;11.80;99.90;;;;;;5046401;28;20220;-70
2022/05/30 06:01:21;;;;;;;15.00;13.15;;;11.90;99.90;;;;;;5049758;28;20223;-67
2022/05/30 06:04:12;;;;;;;19.65;13.80;;;11.90;99.90;;;;;;5045660;28;20301;-70
2022/05/30 06:07:04;;;;;;;22.25;14.35;;;11.90;99.90;;;;;;5057476;28;20310;-69
2022/05/30 06:10:02;;;;;;;16.48;13.50;;;11.90;99.90;;;;;;5042533;28;20277;-70
2022/05/30 06:12:58;;;;;;;20.63;13.52;;;11.90;99.90;;;;;;5068486;28;20668;-71
2022/05/30 06:15:47;;;;;;;20.73;14.32;;;11.80;99.90;;;;;;5042349;28;20524;-73
2022/05/30 06:18:42;;;;;;;21.98;16.15;;;11.80;99.90;;;;;;5060041;28;20227;-71
2022/05/30 06:21:33;;;;;;;19.67;16.38;;;11.90;99.90;;;;;;5044597;28;20222;-72
2022/05/30 06:24:22;;;;;;;20.75;16.73;;;12.00;99.90;;;;;;5046529;28;20216;-72
2022/05/30 06:27:20;;;;;;;22.27;15.88;;;12.20;99.90;;;;;;5058618;28;20349;-71
2022/05/30 06:30:22;;;;;;;17.52;13.93;;;12.20;99.90;;;;;;5047536;28;20274;-72
2022/05/30 06:33:12;;;;;;;17.90;13.40;;;12.20;99.90;;;;;;5046544;28;20314;-72
2022/05/30 06:36:13;;;;;;;17.83;13.70;;;12.10;99.90;;;;;;5045211;28;20216;-71
2022/05/30 06:39:03;;;;;;;17.50;13.88;;;12.40;99.90;;;;;;5057911;28;20246;-74
2022/05/30 06:41:58;;;;;;;13.73;12.27;;;12.40;99.90;;;;;;5039834;28;20225;-75
2022/05/30 06:44:47;;;;;;;13.07;10.60;;;12.40;99.90;;;;;;5039620;28;20417;-76
2022/05/30 06:47:56;;;;;;;9.68;8.48;;;12.50;99.90;;;;;;5057019;28;20687;-75
2022/05/30 06:51:21;;;;;;;13.65;10.88;;;12.20;99.90;;;;;;4980447;28;20814;-75
2022/05/30 06:54:11;;;;;;;9.40;8.40;;;12.30;99.90;;;;;;5045525;28;20219;-75
2022/05/30 07:00:07;;;;;;;11.88;8.95;;;12.10;99.90;;;;;;5059067;28;20220;-73
2022/05/30 07:03:07;;;;;;;12.75;8.85;;;12.20;99.90;;;;;;5066129;28;21108;-74
2022/05/30 07:06:17;;;;;;;11.90;9.30;;;12.10;99.90;;;;;;5052933;28;20676;-78
2022/05/30 07:09:31;;;;;;;9.50;8.00;;;12.10;99.90;;;;;;5057241;28;20262;-76
2022/05/30 07:12:54;;;;;;;10.02;6.70;;;11.90;99.90;;;;;;5048879;28;20256;-75
2022/05/30 07:15:48;;;;;;;10.57;6.60;;;11.80;99.90;;;;;;5045057;28;20350;-76
2022/05/30 07:18:57;;;;;;;8.52;6.30;;;11.70;99.90;;;;;;5064338;28;20609;-75
2022/05/30 07:21:46;;;;;;;8.05;7.25;;;11.90;99.90;;;;;;5059815;28;20220;-75
2022/05/30 07:25:12;;;;;;;7.72;6.85;;;12.10;99.90;;;;;;4995991;28;20273;-76
2022/05/30 07:28:31;;;;;;;12.25;7.75;;;12.40;99.90;;;;;;5025522;28;20216;-74
2022/05/30 07:31:38;;;;;;;9.60;6.80;;;12.20;99.90;;;;;;5056897;28;20232;-75
2022/05/30 07:34:46;;;;;;;12.68;7.38;;;12.10;99.90;;;;;;5063943;28;20271;-74
2022/05/30 07:37:58;;;;;;;10.43;7.85;;;12.10;99.90;;;;;;5058547;28;20440;-74
2022/05/30 07:41:07;;;;;;;9.88;8.18;;;12.20;99.90;;;;;;5060321;28;20711;-75
2022/05/30 07:44:25;;;;;;;9.20;6.85;;;12.40;99.90;;;;;;5051232;28;20220;-76
2022/05/30 07:47:33;;;;;;;12.75;6.82;;;12.30;99.90;;;;;;5060069;28;20303;-75
2022/05/30 07:50:48;;;;;;;10.25;7.28;;;12.20;99.90;;;;;;5060489;28;20254;-74
2022/05/30 07:53:58;;;;;;;10.20;7.25;;;12.20;99.90;;;;;;5078414;28;20219;-74
2022/05/30 07:56:58;;;;;;;8.18;7.38;;;12.20;99.90;;;;;;5059034;28;20243;-74
2022/05/30 07:59:47;;;;;;;9.82;7.82;;;12.50;99.90;;;;;;5051890;28;20219;-74
2022/05/30 08:02:35;;;;;;;9.70;7.78;;;12.50;99.90;;;;;;5051953;28;20313;-77
2022/05/30 08:05:29;;;;;;;9.90;8.10;;;12.50;99.90;;;;;;5045888;28;20737;-77
2022/05/30 08:08:34;;;;;;;10.05;7.53;;;12.50;99.90;;;;;;5057249;28;20236;-71
2022/05/30 08:11:28;;;;;;;9.55;8.48;;;12.40;99.90;;;;;;5045357;28;20230;-71
2022/05/30 08:14:28;;;;;;;8.50;7.07;;;12.50;99.90;;;;;;5074278;28;20686;-70
2022/05/30 08:17:17;;;;;;;9.93;8.43;;;12.60;99.90;;;;;;5046954;28;20232;-71
2022/05/30 08:20:12;;;;;;;11.75;8.43;;;12.60;99.90;;;;;;5043450;28;20244;-70
2022/05/30 08:23:02;;;;;;;9.13;6.80;;;12.70;99.90;;;;;;5057889;28;20710;-74
2022/05/30 08:25:51;;;;;;;9.30;7.97;;;12.50;99.90;;;;;;5049278;28;20644;-72
2022/05/30 08:28:42;;;;;;;8.52;7.45;;;12.60;99.90;;;;;;5043907;28;20224;-72
2022/05/30 08:31:32;;;;;;;9.20;8.02;;;12.60;99.90;;;;;;5056558;28;20332;-71
2022/05/30 08:34:41;;;;;;;12.60;8.30;;;12.50;99.90;;;;;;5059500;28;20211;-71
2022/05/30 08:37:31;;;;;;;11.05;8.60;;;12.50;99.90;;;;;;5059032;28;20219;-71
2022/05/30 08:43:37;;;;;;;11.98;8.88;;;12.60;99.90;;;;;;5057294;28;20224;-72
2022/05/30 08:46:57;;;;;;;8.93;7.60;;;12.50;99.90;;;;;;5041343;28;20525;-71
2022/05/30 08:49:52;;;;;;;10.32;8.43;;;12.30;99.90;;;;;;5042707;28;20349;-70
2022/05/30 08:52:54;;;;;;;10.20;9.10;;;12.40;99.90;;;;;;5061702;28;20263;-72
2022/05/30 08:55:47;;;;;;;10.48;8.63;;;12.60;99.90;;;;;;5057302;28;20224;-72
2022/05/30 08:59:09;;;;;;;10.07;6.50;;;12.50;99.90;;;;;;5043451;28;20223;-72
2022/05/30 09:02:06;;;;;;;8.13;6.50;;;12.30;99.90;;;;;;5055808;28;20251;-73
2022/05/30 09:05:05;;;;;;;8.45;6.90;;;12.30;99.90;;;;;;5056601;28;20242;-72
2022/05/30 09:08:24;;;;;;;11.25;7.20;;;12.30;99.90;;;;;;5043499;28;20306;-72
2022/05/30 09:11:35;;;;;;;9.80;8.52;;;12.50;99.90;;;;;;5071123;28;20223;-73
2022/05/30 09:14:35;;;;;;;8.45;7.05;;;12.80;99.90;;;;;;5039686;28;20239;-71
2022/05/30 09:17:32;;;;;;;10.10;7.00;;;12.70;99.90;;;;;;5038744;28;20217;-72
2022/05/30 09:20:24;;;;;;;7.78;6.25;;;12.50;99.90;;;;;;5052803;28;20220;-72
2022/05/30 09:23:14;;;;;;;12.30;6.25;;;12.70;99.90;;;;;;5047282;28;20727;-71
2022/05/30 09:26:07;;;;;;;7.57;5.78;;;12.50;99.90;;;;;;5042775;28;20224;-72
2022/05/30 09:29:04;;;;;;;7.57;6.82;;;12.50;99.90;;;;;;5053098;28;20595;-71
2022/05/30 09:32:05;;;;;;;9.25;6.75;;;12.90;99.90;;;;;;5055679;28;20338;-72
2022/05/30 09:35:24;;;;;;;7.20;6.13;;;13.20;99.90;;;;;;5054008;28;20315;-72
2022/05/30 09:38:31;;;;;;;6.60;6.00;;;13.20;99.90;;;;;;5063594;28;20224;-72
2022/05/30 09:41:48;;;;;;;7.35;5.93;;;13.20;99.90;;;;;;5044355;28;20251;-72
2022/05/30 09:44:42;;;;;;;6.40;5.55;;;13.30;99.90;;;;;;5053978;28;20213;-71
2022/05/30 09:48:00;;;;;;;9.07;5.53;;;13.40;99.90;;;;;;5054447;28;20235;-72
2022/05/30 09:51:03;;;;;;;8.73;5.88;;;13.20;99.90;;;;;;5068676;28;20219;-72
2022/05/30 09:53:52;;;;;;;7.10;5.55;;;13.40;99.90;;;;;;5044932;28;20219;-72
2022/05/30 09:56:45;;;;;;;6.50;5.57;;;13.10;99.90;;;;;;5045256;28;20765;-73
2022/05/30 09:59:39;;;;;;;9.18;5.65;;;13.30;99.90;;;;;;5039260;28;20224;-74
2022/05/30 10:02:41;;;;;;;7.63;5.65;;;13.30;99.90;;;;;;5040818;28;20243;-73
2022/05/30 10:05:31;;;;;;;6.95;4.78;;;13.20;99.90;;;;;;5052509;28;20261;-72
2022/05/30 10:08:27;;;;;;;7.53;4.93;;;13.30;99.90;;;;;;5049443;28;20228;-73
2022/05/30 10:11:32;;;;;;;5.60;4.90;;;13.60;99.90;;;;;;5045032;28;20979;-72
2022/05/30 10:14:32;;;;;;;5.05;4.43;;;14.00;99.90;;;;;;5066201;28;20223;-71
2022/05/30 10:17:35;;;;;;;4.50;4.10;;;14.10;99.90;;;;;;5042735;28;20752;-71
2022/05/30 10:20:42;;;;;;;4.13;3.65;;;13.90;99.90;;;;;;5044606;28;20220;-73
2022/05/30 10:28:19;;;;;;;3.67;3.03;;;14.20;99.90;;;;;;5056278;28;20219;-73
2022/05/30 10:31:37;;;;;;;5.35;3.30;;;15.30;99.90;;;;;;5054498;28;20226;-72
2022/05/30 10:35:04;;;;;;;3.20;2.85;;;15.70;99.90;;;;;;5049150;28;20259;-71
2022/05/30 10:38:13;;;;;;;4.63;3.30;;;15.50;99.90;;;;;;5015074;28;20841;-72
2022/05/30 10:41:08;;;;;;;3.08;2.78;;;15.30;99.90;;;;;;5058061;28;20215;-72
2022/05/30 10:44:04;;;;;;;4.68;3.13;;;15.20;99.90;;;;;;5072395;28;20225;-73
2022/05/30 10:47:01;;;;;;;3.25;2.97;;;15.50;99.90;;;;;;5056038;28;20231;-72
2022/05/30 10:50:03;;;;;;;3.80;3.40;;;16.20;99.90;;;;;;5051248;28;20227;-73
2022/05/30 10:52:57;;;;;;;5.32;3.63;;;15.30;99.90;;;;;;5045757;28;20577;-73
2022/05/30 10:56:17;;;;;;;5.38;3.20;;;15.20;99.90;;;;;;5070194;28;20299;-74
2022/05/30 10:59:20;;;;;;;5.72;4.50;;;15.50;99.90;;;;;;5073870;28;20240;-71
2022/05/30 11:02:16;;;;;;;5.20;4.43;;;15.80;99.90;;;;;;5054455;28;20653;-74
2022/05/30 11:05:11;;;;;;;4.82;3.92;;;16.00;99.90;;;;;;5043081;28;20261;-72
2022/05/30 11:08:06;;;;;;;5.93;3.95;;;15.80;99.90;;;;;;5043044;28;20220;-72
2022/05/30 11:11:00;;;;;;;6.72;3.83;;;16.20;99.90;;;;;;5050764;28;20801;-72
2022/05/30 11:13:59;;;;;;;4.85;3.88;;;16.30;99.90;;;;;;5037559;28;20224;-72
2022/05/30 11:17:17;;;;;;;5.40;3.70;;;16.10;99.90;;;;;;5057379;28;20683;-71
2022/05/30 11:20:42;;;;;;;4.28;3.88;;;16.10;99.90;;;;;;5056952;28;20306;-73
2022/05/30 11:23:31;;;;;;;4.80;4.07;;;16.30;99.90;;;;;;5054790;28;20229;-73
2022/05/30 11:26:46;;;;;;;5.63;4.60;;;16.00;99.90;;;;;;5063729;28;20602;-73
2022/05/30 11:30:26;;;;;;;6.13;4.68;;;15.60;99.90;;;;;;5029665;28;20634;-72
2022/05/30 11:33:52;;;;;;;8.90;5.68;;;15.20;99.90;;;;;;4999947;28;20249;-71
2022/05/30 11:37:11;;;;;;;10.25;6.20;;;14.90;99.90;;;;;;5017230;28;20222;-72
2022/05/30 11:40:11;;;;;;;8.02;5.68;;;14.70;99.90;;;;;;5038127;28;20221;-73
2022/05/30 11:43:27;;;;;;;10.38;8.52;;;14.50;99.90;;;;;;5060216;28;20232;-73
2022/05/30 11:46:25;;;;;;;10.00;5.95;;;14.50;99.90;;;;;;5050331;28;20229;-73
2022/05/30 11:49:25;;;;;;;7.63;5.78;;;14.50;99.90;;;;;;5053491;28;20350;-71
2022/05/30 11:52:19;;;;;;;7.85;5.32;;;14.30;99.90;;;;;;5049169;28;20335;-72
2022/05/30 11:55:25;;;;;;;8.25;5.70;;;14.40;99.90;;;;;;5054589;28;20228;-72
2022/05/30 11:58:24;;;;;;;7.22;5.70;;;14.50;99.90;;;;;;5036617;28;20277;-73
2022/05/30 12:01:19;;;;;;;9.68;5.80;;;14.60;99.90;;;;;;5052335;28;20229;-72
2022/05/30 12:04:52;;;;;;;6.57;4.20;;;14.90;99.90;;;;;;5061969;28;20228;-73
2022/05/30 12:08:21;;;;;;;4.78;4.38;;;15.10;99.90;;;;;;5059414;28;20228;-74
2022/05/30 12:11:28;;;;;;;3.85;3.25;;;15.30;99.90;;;;;;5047049;28;20239;-73
2022/05/30 12:14:36;;;;;;;4.32;3.63;;;15.40;99.90;;;;;;5040854;28;20793;-73
2022/05/30 12:23:48;;;;;;;5.82;3.83;;;15.40;99.90;;;;;;5044856;28;20311;-74
2022/05/30 12:24:37;;;;;;;4.60;4.15;;;15.30;99.90;;;;;;5009550;28;20235;-72
2022/05/30 12:27:39;;;;;;;5.72;4.40;;;15.40;99.90;;;;;;5059055;28;20223;-72
2022/05/30 12:30:46;;;;;;;4.95;4.00;;;15.70;99.90;;;;;;5046772;28;20706;-73
2022/05/30 12:33:47;;;;;;;4.80;4.10;;;16.60;99.90;;;;;;5046325;28;20389;-74
2022/05/30 12:36:45;;;;;;;7.22;4.20;;;16.80;99.90;;;;;;5074681;28;20234;-72
2022/05/30 12:39:39;;;;;;;5.45;4.53;;;16.60;99.90;;;;;;5061328;28;20856;-71
2022/05/30 12:42:39;;;;;;;5.28;4.78;;;16.40;99.90;;;;;;5050162;28;20218;-73
2022/05/30 12:45:37;;;;;;;7.50;5.28;;;15.90;99.90;;;;;;5057435;28;20232;-71
2022/05/30 12:48:31;;;;;;;5.22;3.90;;;16.30;99.90;;;;;;5047509;28;20747;-72
2022/05/30 12:51:24;;;;;;;4.28;3.88;;;16.40;99.90;;;;;;5062454;28;20227;-72
2022/05/30 12:54:26;;;;;;;5.93;3.70;;;16.40;99.90;;;;;;5044797;28;20221;-74
2022/05/30 12:57:43;;;;;;;5.90;4.00;;;16.50;99.90;;;;;;5058144;28;20232;-75
2022/05/30 13:00:55;;;;;;;5.47;4.03;;;16.30;99.90;;;;;;5055629;28;20244;-71
2022/05/30 13:03:47;;;;;;;6.07;4.30;;;16.40;99.90;;;;;;5054959;28;20231;-72
2022/05/30 13:06:44;;;;;;;6.72;4.32;;;16.40;99.90;;;;;;5066831;28;20597;-72
2022/05/30 13:09:40;;;;;;;4.88;4.30;;;15.70;99.90;;;;;;5063351;28;20542;-72
2022/05/30 13:12:53;;;;;;;5.22;4.38;;;15.30;99.90;;;;;;5069810;28;20228;-73
2022/05/30 13:15:48;;;;;;;4.45;3.65;;;15.10;99.90;;;;;;5060415;28;20258;-72
2022/05/30 13:18:39;;;;;;;9.85;4.50;;;14.70;99.90;;;;;;5048026;28;20263;-72
2022/05/30 13:21:29;;;;;;;6.70;4.40;;;14.60;99.90;;;;;;5049813;28;20275;-72
2022/05/30 13:24:27;;;;;;;6.18;5.00;;;14.40;99.90;;;;;;5042955;28;20255;-73
2022/05/30 13:27:17;;;;;;;6.00;4.50;;;14.50;99.90;;;;;;5058945;28;20685;-72
2022/05/30 13:30:13;;;;;;;10.80;5.47;;;14.50;99.90;;;;;;5074123;28;20234;-74
2022/05/30 13:33:11;;;;;;;6.53;5.15;;;14.60;99.90;;;;;;5051086;28;20213;-72
2022/05/30 13:36:03;;;;;;;7.25;5.55;;;14.50;99.90;;;;;;5065298;28;20225;-72
2022/05/30 13:38:53;;;;;;;7.05;5.30;;;14.60;99.90;;;;;;5043571;28;20220;-72
2022/05/30 13:41:42;;;;;;;8.02;6.07;;;14.70;99.90;;;;;;5067241;28;20219;-73
2022/05/30 13:45:01;;;;;;;6.55;5.50;;;14.70;99.90;;;;;;5048533;28;20339;-73
2022/05/30 13:47:50;;;;;;;6.93;6.32;;;14.80;99.90;;;;;;5061349;28;20222;-73
2022/05/30 13:51:03;;;;;;;7.95;5.68;;;14.70;99.90;;;;;;5061903;28;20223;-72
2022/05/30 13:53:55;;;;;;;6.43;5.72;;;15.00;99.90;;;;;;5063405;28;20730;-73
2022/05/30 13:56:47;;;;;;;5.55;4.80;;;15.10;99.90;;;;;;5056407;28;20220;-72
2022/05/30 13:59:43;;;;;;;6.40;4.45;;;15.10;99.90;;;;;;5056723;28;20354;-72
2022/05/30 14:02:53;;;;;;;5.15;4.53;;;15.10;99.90;;;;;;5057638;28;20220;-72
2022/05/30 14:05:44;;;;;;;6.32;4.90;;;15.20;99.90;;;;;;5049005;28;20216;-73
2022/05/30 14:08:36;;;;;;;5.65;4.20;;;15.20;99.90;;;;;;5050113;28;20601;-73
2022/05/30 14:11:25;;;;;;;6.35;4.70;;;15.20;99.90;;;;;;5060950;28;20224;-72
2022/05/30 14:14:33;;;;;;;5.97;4.50;;;15.20;99.90;;;;;;5051798;28;20308;-72
2022/05/30 14:17:27;;;;;;;8.40;4.82;;;15.00;99.90;;;;;;5068256;28;20287;-72
2022/05/30 14:20:30;;;;;;;7.07;4.60;;;15.20;99.90;;;;;;5072939;28;20236;-72
2022/05/30 14:23:20;;;;;;;8.25;4.72;;;15.20;99.90;;;;;;5051775;28;20234;-72
2022/05/30 14:26:13;;;;;;;5.72;4.95;;;15.00;99.90;;;;;;5056007;28;21015;-72
2022/05/30 14:29:08;;;;;;;5.18;4.50;;;15.00;99.90;;;;;;5063637;28;20226;-73
2022/05/30 14:32:05;;;;;;;6.10;4.65;;;14.90;99.90;;;;;;5052663;28;20242;-73
2022/05/30 14:35:04;;;;;;;6.28;5.10;;;14.90;99.90;;;;;;5052564;28;20216;-72
2022/05/30 14:38:05;;;;;;;5.88;5.13;;;14.80;99.90;;;;;;5050957;28;20618;-72
2022/05/30 14:41:01;;;;;;;7.43;5.47;;;14.90;99.90;;;;;;5050409;28;20244;-72
2022/05/30 14:43:54;;;;;;;9.20;5.15;;;15.10;99.90;;;;;;5047813;28;20628;-73
2022/05/30 14:46:44;;;;;;;6.03;4.70;;;14.80;99.90;;;;;;5061787;28;20384;-72
2022/05/30 14:49:33;;;;;;;5.65;5.05;;;14.70;99.90;;;;;;5054869;28;20576;-72
2022/05/30 14:52:30;;;;;;;7.13;4.15;;;14.70;99.90;;;;;;5054315;28;20362;-73
2022/05/30 14:55:28;;;;;;;6.32;4.20;;;14.60;99.90;;;;;;5069451;28;20559;-72
2022/05/30 14:58:19;;;;;;;6.78;4.40;;;14.50;99.90;;;;;;5059553;28;20789;-73
2022/05/30 15:01:09;;;;;;;5.53;4.80;;;14.60;99.90;;;;;;5062037;28;20223;-73
2022/05/30 15:04:05;;;;;;;6.50;5.28;;;14.50;99.90;;;;;;5048190;28;20216;-73
2022/05/30 15:07:02;;;;;;;7.72;5.13;;;14.40;99.90;;;;;;5062165;28;20719;-73
2022/05/30 15:09:51;;;;;;;7.80;4.70;;;14.20;99.90;;;;;;5056385;28;20527;-72
2022/05/30 15:12:42;;;;;;;7.57;5.10;;;14.10;99.90;;;;;;5068747;28;20222;-72
2022/05/30 15:15:30;;;;;;;7.57;5.40;;;14.20;99.90;;;;;;5062931;28;20216;-72
2022/05/30 15:18:19;;;;;;;9.50;5.03;;;14.20;99.90;;;;;;5066255;28;20701;-75
2022/05/30 15:21:09;;;;;;;6.70;5.28;;;14.60;99.90;;;;;;5058211;28;20227;-73
2022/05/30 15:23:59;;;;;;;6.75;4.68;;;14.90;99.90;;;;;;5067647;28;20226;-73
2022/05/30 15:26:48;;;;;;;5.95;5.22;;;14.90;99.90;;;;;;5073083;28;20223;-72
2022/05/30 15:29:38;;;;;;;5.75;5.03;;;14.80;99.90;;;;;;5045873;28;20236;-73
2022/05/30 15:32:28;;;;;;;6.35;5.00;;;14.70;99.90;;;;;;5043960;28;21397;-73
2022/05/30 15:35:17;;;;;;;5.82;4.82;;;14.90;99.90;;;;;;5048747;28;20317;-73
2022/05/30 15:38:06;;;;;;;9.48;5.00;;;14.90;99.90;;;;;;5067761;28;20972;-72
2022/05/30 15:40:55;;;;;;;6.43;4.50;;;14.90;99.90;;;;;;5050617;28;20268;-73